createdAt,value
2017-05-05T00:00:48.985Z,9.1
2017-05-05T00:01:53.572Z,9
2017-05-05T00:02:56.127Z,9
2017-05-05T00:03:58.795Z,9
2017-05-05T00:06:13.785Z,8.9
2017-05-05T00:07:16.173Z,9
2017-05-05T00:08:19.873Z,8.7
2017-05-05T00:09:22.288Z,9
2017-05-05T00:10:25.436Z,8.9
2017-05-05T00:11:28.171Z,9
2017-05-05T00:12:30.540Z,9
2017-05-05T00:13:33.581Z,8.9
2017-05-05T00:14:36.008Z,8.9
2017-05-05T00:15:38.433Z,9
2017-05-05T00:16:40.800Z,8.9
2017-05-05T00:17:43.277Z,9
2017-05-05T00:18:45.677Z,9.1
2017-05-05T00:19:48.241Z,8.9
2017-05-05T00:20:50.692Z,8.9
2017-05-05T00:21:53.098Z,8.9
2017-05-05T00:22:56.133Z,8.9
2017-05-05T00:23:58.555Z,8.8
2017-05-05T00:25:01.007Z,8.9
2017-05-05T00:26:04.138Z,8.9
2017-05-05T00:27:06.562Z,9.1
2017-05-05T00:28:09.025Z,9.1
2017-05-05T00:29:11.433Z,9.1
2017-05-05T00:30:13.793Z,8.9
2017-05-05T00:31:16.155Z,8.8
2017-05-05T00:32:19.549Z,8.8
2017-05-05T00:33:21.916Z,8.6
2017-05-05T00:34:24.332Z,8.9
2017-05-05T00:35:26.694Z,9
2017-05-05T00:36:29.290Z,9.1
2017-05-05T00:37:31.626Z,9.1
2017-05-05T00:38:34.061Z,8.9
2017-05-05T00:39:36.452Z,8.9
2017-05-05T00:40:38.844Z,8.9
2017-05-05T00:41:41.963Z,8.9
2017-05-05T00:42:44.331Z,8.8
2017-05-05T00:43:46.753Z,8.9
2017-05-05T00:44:49.194Z,8.9
2017-05-05T00:45:52.633Z,9
2017-05-05T00:46:55.058Z,8.9
2017-05-05T00:47:58.018Z,8.9
2017-05-05T00:49:00.441Z,8.9
2017-05-05T00:50:11.740Z,8.9
2017-05-05T00:51:14.119Z,8.8
2017-05-05T00:52:16.615Z,8.8
2017-05-05T00:53:19.012Z,8.8
2017-05-05T00:54:21.364Z,8.9
2017-05-05T00:55:23.791Z,9.1
2017-05-05T00:56:26.211Z,9.1
2017-05-05T00:57:28.619Z,9.1
2017-05-05T00:58:31.084Z,8.9
2017-05-05T00:59:33.423Z,8.8
2017-05-05T01:00:35.834Z,8.9
2017-05-05T01:01:38.189Z,8.8
2017-05-05T01:02:40.900Z,8.8
2017-05-05T01:03:43.346Z,8.9
2017-05-05T01:04:46.400Z,9
2017-05-05T01:05:48.810Z,8.8
2017-05-05T01:06:51.213Z,8.8
2017-05-05T01:07:53.590Z,8.8
2017-05-05T01:08:56.097Z,8.9
2017-05-05T01:09:58.474Z,8.9
2017-05-05T01:11:00.859Z,8.9
2017-05-05T01:12:03.286Z,8.8
2017-05-05T01:13:05.677Z,8.8
2017-05-05T01:14:08.031Z,8.9
2017-05-05T01:15:10.410Z,8.9
2017-05-05T01:16:12.766Z,8.6
2017-05-05T01:17:15.119Z,8.8
2017-05-05T01:18:17.483Z,8.7
2017-05-05T01:19:19.929Z,8.7
2017-05-05T01:20:22.255Z,8.7
2017-05-05T01:21:24.712Z,8.8
2017-05-05T01:22:27.104Z,8.8
2017-05-05T01:23:29.558Z,8.8
2017-05-05T01:24:32.490Z,8.9
2017-05-05T01:25:34.894Z,8.9
2017-05-05T01:26:37.255Z,8.9
2017-05-05T01:27:39.606Z,8.9
2017-05-05T01:28:42.064Z,8.9
2017-05-05T01:29:44.422Z,9
2017-05-05T01:30:46.762Z,8.9
2017-05-05T01:31:49.150Z,8.8
2017-05-05T01:32:51.477Z,8.8
2017-05-05T01:33:53.888Z,8.8
2017-05-05T01:34:56.233Z,8.8
2017-05-05T01:35:58.608Z,8.8
2017-05-05T01:37:00.995Z,8.8
2017-05-05T01:38:03.368Z,8.8
2017-05-05T01:39:06.033Z,8.8
2017-05-05T01:40:08.355Z,8.8
2017-05-05T01:41:10.714Z,8.7
2017-05-05T01:42:13.033Z,8.9
2017-05-05T01:43:15.416Z,8.9
2017-05-05T01:44:18.113Z,8.8
2017-05-05T01:45:20.474Z,8.8
2017-05-05T01:46:22.868Z,8.7
2017-05-05T01:47:25.274Z,8.8
2017-05-05T01:48:27.618Z,8.9
2017-05-05T01:49:29.965Z,8.8
2017-05-05T01:50:32.323Z,8.8
2017-05-05T01:52:42.493Z,8.8
2017-05-05T01:53:44.867Z,8.8
2017-05-05T01:54:47.233Z,8.8
2017-05-05T01:55:49.706Z,8.9
2017-05-05T01:56:52.046Z,8.8
2017-05-05T01:57:54.440Z,8.8
2017-05-05T01:58:56.844Z,8.8
2017-05-05T01:59:59.224Z,8.8
2017-05-05T02:01:01.576Z,8.8
2017-05-05T02:02:03.971Z,8.8
2017-05-05T02:03:06.368Z,8.7
2017-05-05T02:04:08.745Z,8.6
2017-05-05T02:05:11.298Z,8.9
2017-05-05T02:06:13.965Z,8.6
2017-05-05T02:07:16.552Z,9
2017-05-05T02:08:19.032Z,8.9
2017-05-05T02:09:21.387Z,8.7
2017-05-05T02:10:23.748Z,8.9
2017-05-05T02:11:26.112Z,8.9
2017-05-05T02:12:28.458Z,9
2017-05-05T02:13:30.828Z,9
2017-05-05T02:14:33.615Z,9
2017-05-05T02:15:35.997Z,8.9
2017-05-05T02:16:38.354Z,9
2017-05-05T02:17:40.741Z,8.9
2017-05-05T02:18:43.109Z,8.8
2017-05-05T02:19:45.776Z,8.7
2017-05-05T02:20:48.652Z,8.7
2017-05-05T02:21:51.101Z,8.8
2017-05-05T02:22:53.459Z,8.8
2017-05-05T02:23:55.852Z,8.7
2017-05-05T02:25:00.485Z,8.8
2017-05-05T02:26:02.861Z,8.8
2017-05-05T02:27:05.329Z,8.7
2017-05-05T02:28:07.813Z,8.8
2017-05-05T02:29:10.241Z,8.7
2017-05-05T02:30:13.063Z,8.4
2017-05-05T02:31:15.683Z,8.8
2017-05-05T02:32:18.250Z,8.7
2017-05-05T02:33:20.968Z,8.7
2017-05-05T02:34:23.862Z,8.8
2017-05-05T02:35:26.233Z,8.8
2017-05-05T02:36:28.600Z,8.8
2017-05-05T02:37:30.996Z,8.7
2017-05-05T02:38:33.326Z,8.7
2017-05-05T02:39:35.663Z,8.7
2017-05-05T02:40:37.985Z,8.7
2017-05-05T02:41:40.331Z,8.8
2017-05-05T02:42:42.774Z,8.8
2017-05-05T02:43:45.269Z,8.8
2017-05-05T02:44:47.589Z,8.8
2017-05-05T02:45:49.970Z,8.7
2017-05-05T02:46:52.320Z,8.8
2017-05-05T02:47:54.960Z,8.8
2017-05-05T02:48:57.759Z,8.8
2017-05-05T02:50:00.097Z,8.8
2017-05-05T02:51:02.487Z,8.7
2017-05-05T02:52:04.809Z,8.7
2017-05-05T02:53:07.125Z,8.7
2017-05-05T02:54:09.494Z,8.9
2017-05-05T02:55:11.847Z,8.7
2017-05-05T02:56:14.189Z,8.8
2017-05-05T02:57:16.538Z,8.7
2017-05-05T02:58:18.888Z,8.6
2017-05-05T02:59:21.227Z,8.6
2017-05-05T03:00:23.611Z,8.5
2017-05-05T03:01:25.993Z,8.6
2017-05-05T03:02:28.417Z,8.6
2017-05-05T03:03:30.748Z,8.7
2017-05-05T03:04:33.076Z,8.6
2017-05-05T03:05:35.475Z,8.6
2017-05-05T03:06:37.839Z,8.6
2017-05-05T03:07:40.200Z,8.7
2017-05-05T03:08:42.518Z,8.6
2017-05-05T03:09:44.976Z,8.6
2017-05-05T03:10:47.346Z,8.4
2017-05-05T03:11:49.686Z,8.5
2017-05-05T03:12:52.069Z,8.6
2017-05-05T03:13:54.413Z,8.6
2017-05-05T03:14:56.727Z,8.7
2017-05-05T03:15:59.088Z,8.5
2017-05-05T03:17:01.482Z,8.6
2017-05-05T03:18:03.863Z,8.5
2017-05-05T03:19:06.219Z,8.5
2017-05-05T03:20:08.564Z,8.4
2017-05-05T03:21:10.907Z,8.4
2017-05-05T03:22:13.296Z,8.6
2017-05-05T03:23:15.635Z,8.6
2017-05-05T03:24:17.986Z,8.6
2017-05-05T03:25:20.355Z,8.2
2017-05-05T03:26:22.714Z,8.6
2017-05-05T03:27:25.109Z,8.6
2017-05-05T03:28:27.584Z,8.6
2017-05-05T03:29:29.932Z,8.7
2017-05-05T03:30:32.434Z,8.7
2017-05-05T03:31:34.759Z,8.6
2017-05-05T03:32:37.153Z,8.6
2017-05-05T03:33:42.082Z,8.7
2017-05-05T03:34:44.403Z,8.8
2017-05-05T03:35:46.764Z,8.7
2017-05-05T03:36:49.162Z,8.7
2017-05-05T03:37:51.575Z,8.6
2017-05-05T03:38:53.989Z,8.8
2017-05-05T03:39:56.327Z,8.7
2017-05-05T03:40:58.678Z,8.7
2017-05-05T03:42:01.110Z,8.7
2017-05-05T03:43:03.895Z,8.6
2017-05-05T03:44:07.434Z,8.6
2017-05-05T03:45:09.804Z,8.6
2017-05-05T03:46:13.149Z,8.6
2017-05-05T03:47:15.495Z,8.6
2017-05-05T03:48:17.836Z,8.6
2017-05-05T03:49:20.272Z,8.5
2017-05-05T03:50:22.813Z,8.4
2017-05-05T03:51:25.192Z,8.6
2017-05-05T03:52:27.542Z,8.5
2017-05-05T03:53:29.928Z,8.4
2017-05-05T03:54:32.363Z,8.6
2017-05-05T03:55:34.704Z,8.7
2017-05-05T03:56:37.167Z,8.6
2017-05-05T03:57:39.509Z,8.5
2017-05-05T03:58:41.864Z,8.6
2017-05-05T03:59:44.235Z,8.6
2017-05-05T04:00:46.649Z,8.5
2017-05-05T04:01:49.036Z,8.6
2017-05-05T04:02:51.514Z,8.6
2017-05-05T04:03:53.881Z,8.6
2017-05-05T04:04:56.236Z,8.6
2017-05-05T04:05:58.632Z,8.6
2017-05-05T04:07:01.037Z,8.5
2017-05-05T04:08:03.374Z,8.5
2017-05-05T04:09:05.717Z,8.5
2017-05-05T04:10:08.067Z,8.6
2017-05-05T04:11:10.493Z,8.6
2017-05-05T04:12:12.817Z,8.6
2017-05-05T04:13:15.406Z,8.7
2017-05-05T04:14:17.845Z,8.6
2017-05-05T04:15:20.217Z,8.5
2017-05-05T04:16:22.616Z,8.7
2017-05-05T04:17:25.057Z,8.6
2017-05-05T04:18:27.418Z,8.7
2017-05-05T04:19:29.851Z,8.6
2017-05-05T04:20:32.221Z,8.6
2017-05-05T04:21:34.586Z,8.8
2017-05-05T04:22:36.911Z,8.8
2017-05-05T04:23:39.308Z,8.7
2017-05-05T04:24:41.703Z,8.7
2017-05-05T04:25:44.039Z,8.7
2017-05-05T04:26:46.427Z,8.6
2017-05-05T04:27:48.796Z,8.7
2017-05-05T04:28:51.221Z,8.6
2017-05-05T04:29:53.576Z,8.6
2017-05-05T04:30:55.950Z,8.6
2017-05-05T04:31:58.330Z,8.6
2017-05-05T04:33:00.696Z,8.7
2017-05-05T04:34:03.063Z,8.8
2017-05-05T04:35:05.431Z,8.8
2017-05-05T04:36:07.851Z,8.7
2017-05-05T04:37:10.217Z,8.7
2017-05-05T04:38:12.557Z,8.7
2017-05-05T04:39:14.957Z,8.7
2017-05-05T04:40:17.374Z,8.8
2017-05-05T04:41:19.694Z,8.7
2017-05-05T04:42:22.286Z,8.7
2017-05-05T04:43:24.596Z,8.6
2017-05-05T04:44:26.958Z,8.7
2017-05-05T04:45:29.317Z,8.7
2017-05-05T04:46:31.672Z,8.8
2017-05-05T04:47:34.006Z,8.7
2017-05-05T04:48:36.419Z,8.7
2017-05-05T04:49:39.299Z,8.7
2017-05-05T04:50:41.700Z,8.7
2017-05-05T04:51:44.139Z,8.8
2017-05-05T04:52:47.797Z,8.8
2017-05-05T04:53:50.150Z,8.7
2017-05-05T04:54:52.501Z,8.5
2017-05-05T04:55:54.836Z,8.8
2017-05-05T04:56:57.195Z,8.7
2017-05-05T04:57:59.540Z,8.7
2017-05-05T04:59:01.980Z,8.7
2017-05-05T05:00:04.391Z,8.6
2017-05-05T05:01:06.841Z,8.8
2017-05-05T05:02:09.875Z,8.7
2017-05-05T05:03:12.196Z,8.7
2017-05-05T05:04:14.640Z,8.7
2017-05-05T05:05:17.090Z,8.7
2017-05-05T05:06:19.521Z,8.6
2017-05-05T05:07:22.162Z,8.7
2017-05-05T05:08:24.516Z,8.3
2017-05-05T05:09:26.876Z,8.6
2017-05-05T05:10:29.382Z,8.5
2017-05-05T05:11:31.777Z,8.6
2017-05-05T05:12:34.207Z,8.6
2017-05-05T05:14:50.292Z,8.8
2017-05-05T05:15:52.685Z,8.6
2017-05-05T05:16:55.116Z,8.6
2017-05-05T05:17:57.562Z,8.7
2017-05-05T05:18:59.984Z,8.8
2017-05-05T05:20:02.442Z,8.9
2017-05-05T05:21:04.870Z,8.8
2017-05-05T05:22:07.250Z,8.7
2017-05-05T05:23:09.628Z,8.7
2017-05-05T05:24:12.044Z,8.8
2017-05-05T05:25:14.443Z,8.6
2017-05-05T05:26:16.850Z,8.8
2017-05-05T05:27:19.175Z,8.7
2017-05-05T05:28:21.538Z,8.7
2017-05-05T05:29:23.963Z,8.8
2017-05-05T05:30:26.425Z,8.7
2017-05-05T05:31:30.327Z,8.8
2017-05-05T05:32:34.780Z,8.8
2017-05-05T05:33:37.396Z,8.8
2017-05-05T05:34:39.881Z,8.8
2017-05-05T05:35:42.279Z,8.8
2017-05-05T05:36:44.731Z,8.9
2017-05-05T05:37:47.133Z,8.8
2017-05-05T05:38:49.596Z,8.8
2017-05-05T05:39:52.472Z,8.8
2017-05-05T05:40:55.658Z,8.9
2017-05-05T05:41:58.523Z,8.9
2017-05-05T05:43:00.959Z,8.9
2017-05-05T05:44:03.360Z,9
2017-05-05T05:45:05.774Z,8.9
2017-05-05T05:46:08.146Z,9.1
2017-05-05T05:47:10.476Z,9.1
2017-05-05T05:48:12.865Z,9
2017-05-05T05:49:15.273Z,9
2017-05-05T05:50:17.703Z,8.9
2017-05-05T05:51:20.114Z,8.8
2017-05-05T05:52:22.462Z,8.9
2017-05-05T05:53:24.863Z,8.9
2017-05-05T05:54:27.630Z,9
2017-05-05T05:55:30.043Z,9
2017-05-05T05:56:32.725Z,9
2017-05-05T05:57:35.537Z,8.9
2017-05-05T05:58:37.981Z,8.8
2017-05-05T05:59:40.350Z,9.1
2017-05-05T06:00:42.734Z,9
2017-05-05T06:01:45.065Z,9.2
2017-05-05T06:02:47.544Z,9.1
2017-05-05T06:03:49.968Z,9
2017-05-05T06:04:53.345Z,9.1
2017-05-05T06:05:55.820Z,9.1
2017-05-05T06:06:58.265Z,9.1
2017-05-05T06:08:00.662Z,9
2017-05-05T06:09:03.109Z,9.1
2017-05-05T06:10:05.538Z,9.1
2017-05-05T06:11:08.016Z,9.1
2017-05-05T06:12:10.455Z,9.1
2017-05-05T06:13:12.886Z,9.1
2017-05-05T06:14:15.277Z,9.2
2017-05-05T06:15:17.735Z,9.1
2017-05-05T06:16:20.189Z,9.1
2017-05-05T06:17:22.661Z,9.1
2017-05-05T06:18:25.061Z,9.1
2017-05-05T06:19:27.509Z,9.2
2017-05-05T06:20:29.980Z,9.1
2017-05-05T06:21:32.312Z,9.1
2017-05-05T06:22:34.788Z,9.2
2017-05-05T06:23:38.764Z,9.1
2017-05-05T06:24:41.211Z,9.1
2017-05-05T06:25:44.016Z,9.1
2017-05-05T06:26:46.547Z,9.1
2017-05-05T06:27:49.504Z,9.2
2017-05-05T06:28:51.920Z,9.1
2017-05-05T06:29:54.653Z,9.1
2017-05-05T06:30:57.416Z,9.3
2017-05-05T06:31:59.805Z,9.2
2017-05-05T06:33:02.194Z,9.1
2017-05-05T06:34:04.596Z,9.1
2017-05-05T06:35:07.052Z,9.4
2017-05-05T06:36:11.728Z,9.4
2017-05-05T06:37:14.430Z,9.3
2017-05-05T06:38:16.816Z,9.2
2017-05-05T06:39:19.213Z,9.3
2017-05-05T06:40:21.622Z,9.1
2017-05-05T06:41:24.072Z,9
2017-05-05T06:42:27.015Z,9.2
2017-05-05T06:43:29.572Z,9
2017-05-05T06:44:32.625Z,9.3
2017-05-05T06:45:35.017Z,9.4
2017-05-05T06:46:37.444Z,9.3
2017-05-05T06:47:40.509Z,9.4
2017-05-05T06:48:42.942Z,9.3
2017-05-05T06:49:45.336Z,9.3
2017-05-05T06:50:49.009Z,9.4
2017-05-05T06:51:51.504Z,9.4
2017-05-05T06:52:54.531Z,9.4
2017-05-05T06:53:56.929Z,9.3
2017-05-05T06:54:59.384Z,9.3
2017-05-05T06:56:01.850Z,9.4
2017-05-05T06:57:04.274Z,9.3
2017-05-05T06:58:06.710Z,9.2
2017-05-05T06:59:09.100Z,9.1
2017-05-05T07:00:12.437Z,9.3
2017-05-05T07:01:14.849Z,9.2
2017-05-05T07:02:18.048Z,9.5
2017-05-05T07:03:20.418Z,9.3
2017-05-05T07:04:22.801Z,9.5
2017-05-05T07:05:25.198Z,9.6
2017-05-05T07:06:27.626Z,9.5
2017-05-05T07:07:30.042Z,9.6
2017-05-05T07:08:33.546Z,9.6
2017-05-05T07:09:36.053Z,9.5
2017-05-05T07:10:38.560Z,9.5
2017-05-05T07:11:40.983Z,9.5
2017-05-05T07:12:43.455Z,9.4
2017-05-05T07:13:46.425Z,9.5
2017-05-05T07:14:48.896Z,9.5
2017-05-05T07:15:51.315Z,9.5
2017-05-05T07:16:54.508Z,9.5
2017-05-05T07:17:56.881Z,9.5
2017-05-05T07:18:59.206Z,9.5
2017-05-05T07:20:01.678Z,9.5
2017-05-05T07:21:04.112Z,9.7
2017-05-05T07:22:07.088Z,9.6
2017-05-05T07:23:09.518Z,9.5
2017-05-05T07:24:12.017Z,9.5
2017-05-05T07:25:14.434Z,9.6
2017-05-05T07:26:18.133Z,9.4
2017-05-05T07:27:20.592Z,9.6
2017-05-05T07:28:23.022Z,9.7
2017-05-05T07:29:25.389Z,9.7
2017-05-05T07:30:27.895Z,9.6
2017-05-05T07:31:30.896Z,9.5
2017-05-05T07:32:33.361Z,9.5
2017-05-05T07:33:35.781Z,9.4
2017-05-05T07:34:38.291Z,9.4
2017-05-05T07:35:42.053Z,9.5
2017-05-05T07:36:45.410Z,9.6
2017-05-05T07:37:47.884Z,9.3
2017-05-05T07:38:50.304Z,9.4
2017-05-05T07:39:52.660Z,9.5
2017-05-05T07:40:56.795Z,9.4
2017-05-05T07:41:59.295Z,9.4
2017-05-05T07:43:03.749Z,9.6
2017-05-05T07:44:06.108Z,9.8
2017-05-05T07:45:08.584Z,9.8
2017-05-05T07:46:11.712Z,9.7
2017-05-05T07:47:14.137Z,9.9
2017-05-05T07:48:25.584Z,10
2017-05-05T07:49:28.021Z,9.9
2017-05-05T07:50:30.747Z,9.4
2017-05-05T07:51:33.209Z,9.7
2017-05-05T07:52:36.349Z,9.9
2017-05-05T07:53:38.716Z,9.8
2017-05-05T07:54:41.243Z,9.8
2017-05-05T07:55:44.178Z,9.9
2017-05-05T07:56:46.648Z,9.9
2017-05-05T07:57:50.297Z,9.8
2017-05-05T07:58:53.423Z,9.7
2017-05-05T07:59:56.116Z,9.6
2017-05-05T08:00:58.461Z,9.7
2017-05-05T08:02:02.377Z,9.9
2017-05-05T08:03:05.768Z,9.9
2017-05-05T08:04:08.232Z,9.9
2017-05-05T08:05:10.620Z,9.8
2017-05-05T08:06:13.062Z,9.9
2017-05-05T08:07:15.509Z,10
2017-05-05T08:08:18.933Z,9.9
2017-05-05T08:09:21.319Z,9.8
2017-05-05T08:10:24.388Z,10
2017-05-05T08:11:27.557Z,9.6
2017-05-05T08:12:31.214Z,9.3
2017-05-05T08:13:33.608Z,9.5
2017-05-05T08:14:36.560Z,9.6
2017-05-05T08:15:39.862Z,9.6
2017-05-05T08:16:43.205Z,9.2
2017-05-05T08:17:46.253Z,9.7
2017-05-05T08:18:49.269Z,9.6
2017-05-05T08:19:51.757Z,9.9
2017-05-05T08:20:54.261Z,10.1
2017-05-05T08:21:57.919Z,10.4
2017-05-05T08:23:01.415Z,10.3
2017-05-05T08:24:06.398Z,10.4
2017-05-05T08:25:08.848Z,10.4
2017-05-05T08:26:12.232Z,10.6
2017-05-05T08:27:16.160Z,10.7
2017-05-05T08:28:19.254Z,10.3
2017-05-05T08:29:22.935Z,10.6
2017-05-05T08:30:26.065Z,10.8
2017-05-05T08:31:28.541Z,10.9
2017-05-05T08:32:31.149Z,10.7
2017-05-05T08:33:34.433Z,10.9
2017-05-05T08:34:37.461Z,10.8
2017-05-05T08:35:39.861Z,10.8
2017-05-05T08:36:43.631Z,10.8
2017-05-05T08:37:48.745Z,10.6
2017-05-05T08:38:56.916Z,10.8
2017-05-05T08:40:00.367Z,11
2017-05-05T08:41:03.485Z,10.7
2017-05-05T08:42:08.511Z,10.9
2017-05-05T08:43:10.987Z,10.8
2017-05-05T08:44:13.462Z,11.1
2017-05-05T08:45:15.899Z,10.9
2017-05-05T08:46:19.832Z,10.7
2017-05-05T08:47:23.619Z,10.7
2017-05-05T08:48:27.044Z,10.5
2017-05-05T08:49:30.938Z,10.6
2017-05-05T08:50:34.290Z,10.7
2017-05-05T08:51:37.516Z,11
2017-05-05T08:52:39.949Z,10.8
2017-05-05T08:53:42.398Z,10.8
2017-05-05T08:54:45.504Z,10.5
2017-05-05T08:55:49.028Z,10.6
2017-05-05T08:56:51.477Z,10.6
2017-05-05T08:57:54.960Z,10.5
2017-05-05T08:58:58.067Z,10.3
2017-05-05T09:00:00.535Z,10.3
2017-05-05T09:01:03.647Z,10.6
2017-05-05T09:02:06.826Z,11
2017-05-05T09:03:10.305Z,10.8
2017-05-05T09:04:13.425Z,10.8
2017-05-05T09:05:15.910Z,10.9
2017-05-05T09:07:30.856Z,10.6
2017-05-05T09:08:33.276Z,10.9
2017-05-05T09:09:36.145Z,10.7
2017-05-05T09:10:38.545Z,10.7
2017-05-05T09:11:41.052Z,10.9
2017-05-05T09:12:45.105Z,10.9
2017-05-05T09:13:49.315Z,10.9
2017-05-05T09:14:52.925Z,11
2017-05-05T09:15:55.283Z,10.9
2017-05-05T09:16:57.679Z,11
2017-05-05T09:18:00.809Z,10.9
2017-05-05T09:19:03.372Z,10.9
2017-05-05T09:20:07.451Z,11
2017-05-05T09:21:09.883Z,11
2017-05-05T09:22:12.336Z,11.2
2017-05-05T09:23:17.370Z,11.3
2017-05-05T09:24:19.782Z,11.3
2017-05-05T09:25:22.275Z,11.1
2017-05-05T09:26:28.529Z,11.1
2017-05-05T09:27:31.552Z,11.1
2017-05-05T09:28:33.971Z,11.2
2017-05-05T09:29:39.890Z,10.7
2017-05-05T09:30:46.090Z,11
2017-05-05T09:31:49.181Z,11.1
2017-05-05T09:32:51.600Z,11.3
2017-05-05T09:33:56.147Z,11.2
2017-05-05T09:34:59.276Z,11.1
2017-05-05T09:36:02.721Z,11.2
2017-05-05T09:37:05.774Z,11.3
2017-05-05T09:38:09.798Z,11.1
2017-05-05T09:40:26.525Z,11.1
2017-05-05T09:41:30.376Z,11.1
2017-05-05T09:42:34.744Z,11.1
2017-05-05T09:43:37.144Z,11
2017-05-05T09:44:40.146Z,11
2017-05-05T09:45:42.614Z,10.9
2017-05-05T09:46:47.456Z,10.9
2017-05-05T09:47:51.446Z,10.8
2017-05-05T09:48:55.234Z,10.9
2017-05-05T09:49:58.855Z,11.1
2017-05-05T09:51:02.306Z,11
2017-05-05T09:52:04.809Z,10.9
2017-05-05T09:53:07.850Z,10.8
2017-05-05T09:54:10.356Z,10.7
2017-05-05T09:55:13.848Z,10.8
2017-05-05T09:56:17.147Z,10.9
2017-05-05T09:57:21.400Z,10.9
2017-05-05T09:58:26.387Z,11
2017-05-05T09:59:34.760Z,10.8
2017-05-05T10:00:37.920Z,10.8
2017-05-05T10:01:41.721Z,11.1
2017-05-05T10:03:55.597Z,11
2017-05-05T10:04:58.484Z,10.8
2017-05-05T10:06:02.089Z,10.8
2017-05-05T10:07:06.034Z,11
2017-05-05T10:08:09.122Z,11.1
2017-05-05T10:09:13.347Z,11.1
2017-05-05T10:10:16.286Z,11.2
2017-05-05T10:11:21.945Z,10.8
2017-05-05T10:12:26.372Z,10.7
2017-05-05T10:13:32.002Z,10.9
2017-05-05T10:15:42.854Z,10.9
2017-05-05T10:16:48.495Z,11
2017-05-05T10:17:50.980Z,11
2017-05-05T10:18:56.569Z,11.1
2017-05-05T10:19:59.327Z,11.1
2017-05-05T10:21:02.567Z,11.2
2017-05-05T10:22:08.444Z,11.1
2017-05-05T10:23:13.904Z,11.1
2017-05-05T10:24:16.905Z,11.1
2017-05-05T10:25:22.965Z,11
2017-05-05T10:26:27.225Z,11.1
2017-05-05T10:27:31.721Z,11.3
2017-05-05T10:28:38.345Z,11.3
2017-05-05T10:29:41.581Z,11
2017-05-05T10:30:44.780Z,11.2
2017-05-05T10:31:47.400Z,11.3
2017-05-05T10:32:51.059Z,11.1
2017-05-05T10:33:54.899Z,11.1
2017-05-05T10:35:02.069Z,10.6
2017-05-05T10:36:08.795Z,10.4
2017-05-05T10:37:12.939Z,10.9
2017-05-05T10:38:16.138Z,11
2017-05-05T10:39:20.013Z,11.3
2017-05-05T10:40:26.221Z,11.3
2017-05-05T10:41:31.202Z,11.3
2017-05-05T10:42:35.353Z,11.5
2017-05-05T10:43:38.957Z,11.5
2017-05-05T10:44:42.361Z,11.5
2017-05-05T10:45:44.766Z,11.7
2017-05-05T10:46:47.404Z,11.8
2017-05-05T10:47:51.593Z,11.8
2017-05-05T10:48:54.056Z,11.9
2017-05-05T10:49:56.580Z,11.6
2017-05-05T10:51:02.411Z,11.3
2017-05-05T10:52:05.126Z,11.3
2017-05-05T10:53:08.278Z,11.5
2017-05-05T10:54:12.926Z,11.5
2017-05-05T10:55:17.688Z,11.7
2017-05-05T10:56:20.286Z,11.7
2017-05-05T10:57:26.657Z,11.9
2017-05-05T10:58:30.741Z,11.7
2017-05-05T10:59:34.764Z,11.9
2017-05-05T11:00:38.765Z,11.9
2017-05-05T11:01:43.105Z,12
2017-05-05T11:02:47.262Z,11.5
2017-05-05T11:03:49.732Z,11.3
2017-05-05T11:04:52.169Z,11.7
2017-05-05T11:05:54.691Z,11.6
2017-05-05T11:06:58.591Z,11.9
2017-05-05T11:08:01.898Z,11.9
2017-05-05T11:09:04.486Z,11.4
2017-05-05T11:10:10.385Z,11.8
2017-05-05T11:11:14.109Z,11.8
2017-05-05T11:12:17.232Z,12
2017-05-05T11:13:20.295Z,11.6
2017-05-05T11:14:24.937Z,11.5
2017-05-05T11:15:29.417Z,11.4
2017-05-05T11:16:33.570Z,11.7
2017-05-05T11:17:36.748Z,12.1
2017-05-05T11:18:39.285Z,12.4
2017-05-05T11:19:43.744Z,12.2
2017-05-05T11:20:46.478Z,12.3
2017-05-05T11:21:51.180Z,12.2
2017-05-05T11:22:54.868Z,12.2
2017-05-05T11:24:00.310Z,12.3
2017-05-05T11:25:06.752Z,12.5
2017-05-05T11:26:10.824Z,12.3
2017-05-05T11:27:20.884Z,12.4
2017-05-05T11:28:23.328Z,11.4
2017-05-05T11:29:28.193Z,11.5
2017-05-05T11:30:32.598Z,11.6
2017-05-05T11:31:36.911Z,12.1
2017-05-05T11:32:41.115Z,12.2
2017-05-05T11:33:46.037Z,11.9
2017-05-05T11:34:49.622Z,11.9
2017-05-05T11:35:52.980Z,12.3
2017-05-05T11:36:56.735Z,12.4
2017-05-05T11:38:04.944Z,12.6
2017-05-05T11:40:24.089Z,11.9
2017-05-05T11:41:29.476Z,11.9
2017-05-05T11:42:33.848Z,12.1
2017-05-05T11:43:37.498Z,11.5
2017-05-05T11:44:42.789Z,11.9
2017-05-05T11:45:46.687Z,11.5
2017-05-05T11:46:50.828Z,11.4
2017-05-05T11:47:56.482Z,11.4
2017-05-05T11:49:00.918Z,11.8
2017-05-05T11:50:07.625Z,12
2017-05-05T11:51:10.886Z,12.3
2017-05-05T11:52:16.873Z,12.2
2017-05-05T11:53:19.873Z,12.4
2017-05-05T11:54:22.342Z,12.6
2017-05-05T11:55:26.901Z,12.8
2017-05-05T11:57:41.196Z,12.4
2017-05-05T11:58:44.654Z,12.3
2017-05-05T11:59:48.606Z,12.3
2017-05-05T12:00:55.916Z,12.5
2017-05-05T12:01:59.739Z,12.8
2017-05-05T12:03:03.129Z,12.7
2017-05-05T12:04:10.216Z,12.9
2017-05-05T12:05:18.253Z,13
2017-05-05T12:06:22.421Z,12.8
2017-05-05T12:07:26.963Z,12.9
2017-05-05T12:08:32.896Z,12.8
2017-05-05T12:09:36.853Z,12.7
2017-05-05T12:10:41.265Z,11.8
2017-05-05T12:11:47.208Z,12.1
2017-05-05T12:12:50.202Z,12.5
2017-05-05T12:13:55.623Z,12.6
2017-05-05T12:15:02.104Z,12.7
2017-05-05T12:16:06.398Z,12.7
2017-05-05T12:17:13.105Z,12.3
2017-05-05T12:18:18.246Z,12.3
2017-05-05T12:19:23.099Z,12.4
2017-05-05T12:20:25.650Z,12.6
2017-05-05T12:21:29.082Z,12.6
2017-05-05T12:22:32.957Z,12.6
2017-05-05T12:23:40.406Z,12.9
2017-05-05T12:24:51.620Z,13
2017-05-05T12:25:54.421Z,12.9
2017-05-05T12:27:01.641Z,13
2017-05-05T12:28:05.648Z,13
2017-05-05T12:29:12.036Z,13
2017-05-05T12:30:17.888Z,13
2017-05-05T12:31:21.439Z,13.1
2017-05-05T12:32:24.457Z,12.6
2017-05-05T12:33:31.076Z,12.8
2017-05-05T12:34:37.065Z,12.7
2017-05-05T12:35:45.894Z,12.8
2017-05-05T12:36:49.565Z,12.9
2017-05-05T12:37:53.241Z,12.9
2017-05-05T12:38:57.343Z,13
2017-05-05T12:40:02.956Z,12.8
2017-05-05T12:41:07.146Z,12.6
2017-05-05T12:42:11.814Z,12.3
2017-05-05T12:43:14.924Z,12.2
2017-05-05T12:44:19.515Z,12.8
2017-05-05T12:45:24.489Z,13.1
2017-05-05T12:46:30.055Z,13
2017-05-05T12:47:34.217Z,12.9
2017-05-05T12:48:38.326Z,12.9
2017-05-05T12:49:43.702Z,12.8
2017-05-05T12:50:48.400Z,13
2017-05-05T12:51:54.289Z,12.6
2017-05-05T12:52:56.748Z,12.4
2017-05-05T12:54:02.486Z,12.6
2017-05-05T12:55:06.245Z,12.8
2017-05-05T12:56:10.035Z,13.1
2017-05-05T12:57:14.906Z,12.7
2017-05-05T12:58:23.637Z,12.9
2017-05-05T12:59:28.684Z,12.6
2017-05-05T13:00:33.137Z,12.8
2017-05-05T13:01:39.680Z,13
2017-05-05T13:02:43.502Z,12.9
2017-05-05T13:03:48.142Z,13.2
2017-05-05T13:04:52.544Z,13
2017-05-05T13:05:57.818Z,12.9
2017-05-05T13:07:02.997Z,12.8
2017-05-05T13:08:13.100Z,13.1
2017-05-05T13:09:17.454Z,13
2017-05-05T13:10:24.110Z,12.6
2017-05-05T13:11:29.553Z,12.6
2017-05-05T13:12:31.936Z,12.9
2017-05-05T13:13:35.072Z,12.9
2017-05-05T13:14:41.337Z,12.6
2017-05-05T13:15:50.818Z,12.8
2017-05-05T13:17:03.577Z,13
2017-05-05T13:18:10.057Z,13
2017-05-05T13:19:13.770Z,13
2017-05-05T13:20:24.133Z,13
2017-05-05T13:21:35.520Z,13
2017-05-05T13:22:39.154Z,13.1
2017-05-05T13:23:48.201Z,13
2017-05-05T13:24:55.094Z,13
2017-05-05T13:26:00.702Z,13
2017-05-05T13:27:09.209Z,12.8
2017-05-05T13:28:12.380Z,12.7
2017-05-05T13:29:18.264Z,12.9
2017-05-05T13:30:23.092Z,12.8
2017-05-05T13:31:30.478Z,12.7
2017-05-05T13:32:34.483Z,12.9
2017-05-05T13:33:43.896Z,12.7
2017-05-05T13:34:50.887Z,12.6
2017-05-05T13:35:59.120Z,12.6
2017-05-05T13:37:04.171Z,12.7
2017-05-05T13:38:12.192Z,12.6
2017-05-05T13:39:20.157Z,12.6
2017-05-05T13:40:24.912Z,12.7
2017-05-05T13:41:32.991Z,12.6
2017-05-05T13:42:37.771Z,12.5
2017-05-05T13:43:44.197Z,12.6
2017-05-05T13:44:55.536Z,12.5
2017-05-05T13:46:07.769Z,12.5
2017-05-05T13:47:14.662Z,12.4
2017-05-05T13:48:21.962Z,12.4
2017-05-05T13:49:27.261Z,12.4
2017-05-05T13:50:36.368Z,12.5
2017-05-05T13:51:43.629Z,12.4
2017-05-05T13:52:46.837Z,12.1
2017-05-05T13:53:54.672Z,12.4
2017-05-05T13:55:02.485Z,12.2
2017-05-05T13:56:08.449Z,11.9
2017-05-05T13:57:16.689Z,12
2017-05-05T13:58:20.444Z,11.4
2017-05-05T13:59:26.659Z,11.8
2017-05-05T14:00:30.590Z,12.1
2017-05-05T14:01:37.228Z,12.1
2017-05-05T14:02:41.756Z,12.1
2017-05-05T14:03:46.423Z,12.1
2017-05-05T14:04:53.394Z,12.2
2017-05-05T14:05:56.639Z,12.1
2017-05-05T14:07:01.986Z,12
2017-05-05T14:08:06.944Z,12.1
2017-05-05T14:09:13.012Z,12.1
2017-05-05T14:10:17.732Z,12.2
2017-05-05T14:11:20.764Z,11.8
2017-05-05T14:12:29.716Z,11.8
2017-05-05T14:13:38.628Z,11.5
2017-05-05T14:14:47.538Z,11.9
2017-05-05T14:15:53.477Z,11.6
2017-05-05T14:17:00.034Z,11.6
2017-05-05T14:18:03.941Z,11.5
2017-05-05T14:19:08.788Z,11.8
2017-05-05T14:20:13.113Z,12
2017-05-05T14:21:18.585Z,12.2
2017-05-05T14:22:23.986Z,11.9
2017-05-05T14:23:28.800Z,11.7
2017-05-05T14:24:33.839Z,11.4
2017-05-05T14:25:38.469Z,11.4
2017-05-05T14:26:45.563Z,11.6
2017-05-05T14:27:49.012Z,11.6
2017-05-05T14:28:53.448Z,11.8
2017-05-05T14:29:59.381Z,11.8
2017-05-05T14:31:03.933Z,11.9
2017-05-05T14:32:08.943Z,11.9
2017-05-05T14:33:18.488Z,11.8
2017-05-05T14:34:25.884Z,11.5
2017-05-05T14:35:30.641Z,11.7
2017-05-05T14:36:39.049Z,11.9
2017-05-05T14:37:44.484Z,11.9